createdAt,value
2018-09-08T00:00:16.720Z,81.3
2018-09-08T00:01:16.746Z,81.1
2018-09-08T00:02:17.014Z,80.9
2018-09-08T00:03:16.280Z,80.8
2018-09-08T00:04:16.557Z,80.6
2018-09-08T00:05:16.826Z,80.6
2018-09-08T00:06:17.092Z,80.4
2018-09-08T00:07:16.353Z,80.4
2018-09-08T00:08:16.624Z,80.2
2018-09-08T00:09:16.888Z,80.2
2018-09-08T00:10:17.176Z,80.3
2018-09-08T00:11:17.216Z,80.2
2018-09-08T00:12:16.485Z,79.7
2018-09-08T00:13:16.747Z,79.7
2018-09-08T00:14:17.015Z,79.9
2018-09-08T00:15:16.289Z,79.9
2018-09-08T00:16:16.552Z,79.4
2018-09-08T00:17:16.823Z,79.6
2018-09-08T00:18:17.086Z,78.7
2018-09-08T00:19:16.372Z,79.0
2018-09-08T00:20:16.658Z,78.9
2018-09-08T00:21:16.703Z,78.9
2018-09-08T00:22:16.978Z,79.2
2018-09-08T00:23:17.240Z,79.4
2018-09-08T00:24:16.508Z,79.8
2018-09-08T00:25:16.790Z,80.2
2018-09-08T00:26:17.053Z,80.2
2018-09-08T00:27:16.334Z,80.4
2018-09-08T00:28:16.593Z,80.5
2018-09-08T00:29:16.861Z,80.9
2018-09-08T00:30:17.143Z,81.0
2018-09-08T00:31:17.172Z,81.1
2018-09-08T00:32:16.440Z,81.1
2018-09-08T00:33:16.710Z,81.0
2018-09-08T00:34:16.971Z,81.1
2018-09-08T00:35:17.245Z,81.4
2018-09-08T00:36:16.518Z,81.8
2018-09-08T00:37:16.783Z,81.7
2018-09-08T00:38:17.120Z,81.4
2018-09-08T00:39:16.391Z,81.6
2018-09-08T00:40:16.676Z,81.8
2018-09-08T00:41:16.683Z,82.3
2018-09-08T00:42:16.948Z,81.9
2018-09-08T00:43:17.212Z,82.1
2018-09-08T00:44:16.471Z,82.0
2018-09-08T00:45:16.745Z,81.9
2018-09-08T00:46:17.008Z,82.1
2018-09-08T00:47:16.303Z,82.1
2018-09-08T00:48:16.573Z,82.2
2018-09-08T00:49:16.846Z,82.3
2018-09-08T00:50:17.118Z,82.4
2018-09-08T00:51:17.176Z,82.6
2018-09-08T00:52:16.444Z,82.8
2018-09-08T00:53:16.713Z,82.7
2018-09-08T00:54:16.974Z,82.6
2018-09-08T00:55:17.239Z,82.7
2018-09-08T00:56:16.511Z,81.9
2018-09-08T00:57:16.787Z,81.7
2018-09-08T00:58:17.052Z,81.7
2018-09-08T00:59:16.319Z,81.8
2018-09-08T01:00:16.608Z,81.7
2018-09-08T01:01:16.643Z,81.5
2018-09-08T01:02:16.905Z,81.6
2018-09-08T01:03:17.181Z,81.4
2018-09-08T01:04:16.450Z,81.6
2018-09-08T01:05:16.718Z,81.1
2018-09-08T01:06:16.982Z,81.1
2018-09-08T01:07:17.260Z,81.3
2018-09-08T01:08:16.524Z,81.4
2018-09-08T01:09:16.794Z,81.3
2018-09-08T01:10:17.110Z,81.2
2018-09-08T01:11:17.112Z,81.3
2018-09-08T01:12:16.377Z,81.1
2018-09-08T01:13:16.637Z,80.8
2018-09-08T01:14:16.914Z,80.5
2018-09-08T01:15:17.201Z,80.4
2018-09-08T01:16:16.470Z,80.6
2018-09-08T01:17:16.731Z,80.6
2018-09-08T01:18:17.000Z,80.4
2018-09-08T01:19:16.282Z,80.2
2018-09-08T01:20:16.583Z,80.2
2018-09-08T01:21:16.620Z,80.0
2018-09-08T01:22:16.888Z,79.9
2018-09-08T01:23:17.161Z,79.8
2018-09-08T01:24:16.433Z,80.0
2018-09-08T01:25:16.707Z,79.8
2018-09-08T01:26:16.972Z,79.9
2018-09-08T01:27:17.256Z,79.6
2018-09-08T01:28:16.538Z,79.5
2018-09-08T01:29:16.812Z,79.5
2018-09-08T01:30:17.093Z,79.4
2018-09-08T01:31:17.145Z,79.3
2018-09-08T01:32:16.474Z,79.4
2018-09-08T01:33:16.740Z,79.1
2018-09-08T01:34:17.014Z,79.2
2018-09-08T01:35:16.305Z,79.4
2018-09-08T01:36:16.580Z,79.2
2018-09-08T01:37:16.849Z,79.1
2018-09-08T01:38:17.117Z,78.8
2018-09-08T01:39:16.396Z,78.6
2018-09-08T01:40:16.668Z,78.6
2018-09-08T01:41:16.709Z,78.6
2018-09-08T01:42:16.972Z,78.4
2018-09-08T01:43:17.237Z,78.3
2018-09-08T01:44:16.515Z,78.0
2018-09-08T01:45:16.780Z,78.2
2018-09-08T01:46:17.048Z,78.0
2018-09-08T01:47:16.316Z,78.4
2018-09-08T01:48:16.580Z,78.7
2018-09-08T01:49:16.842Z,78.6
2018-09-08T01:50:17.382Z,78.3
2018-09-08T01:51:17.167Z,78.3
2018-09-08T01:52:16.440Z,78.3
2018-09-08T01:53:16.703Z,78.1
2018-09-08T01:54:16.971Z,78.4
2018-09-08T01:55:17.576Z,78.4
2018-09-08T01:56:16.843Z,78.3
2018-09-08T01:57:17.131Z,78.6
2018-09-08T01:58:16.396Z,78.5
2018-09-08T01:59:16.665Z,77.7
2018-09-08T02:00:16.935Z,77.5
2018-09-08T02:01:17.084Z,78.0
2018-09-08T02:02:16.360Z,77.8
2018-09-08T02:03:16.628Z,77.4
2018-09-08T02:04:16.901Z,77.8
2018-09-08T02:05:17.175Z,78.0
2018-09-08T02:06:16.444Z,78.2
2018-09-08T02:07:16.711Z,78.1
2018-09-08T02:08:16.986Z,78.4
2018-09-08T02:09:17.252Z,78.0
2018-09-08T02:10:16.539Z,78.4
2018-09-08T02:11:16.579Z,78.7
2018-09-08T02:12:16.848Z,78.9
2018-09-08T02:13:17.113Z,79.3
2018-09-08T02:14:16.377Z,79.1
2018-09-08T02:15:16.657Z,79.3
2018-09-08T02:16:16.926Z,79.4
2018-09-08T02:17:17.193Z,79.1
2018-09-08T02:18:16.455Z,79.3
2018-09-08T02:19:16.726Z,79.4
2018-09-08T02:20:16.999Z,79.4
2018-09-08T02:21:17.043Z,79.4
2018-09-08T02:22:16.311Z,79.4
2018-09-08T02:23:16.575Z,79.5
2018-09-08T02:24:16.867Z,79.6
2018-09-08T02:25:17.189Z,79.2
2018-09-08T02:26:16.471Z,79.4
2018-09-08T02:27:16.738Z,79.4
2018-09-08T02:28:17.020Z,79.6
2018-09-08T02:29:16.299Z,79.6
2018-09-08T02:30:16.576Z,79.6
2018-09-08T02:31:16.618Z,79.5
2018-09-08T02:32:16.891Z,79.7
2018-09-08T02:33:17.154Z,79.7
2018-09-08T02:34:16.428Z,79.6
2018-09-08T02:35:16.702Z,79.7
2018-09-08T02:36:16.975Z,79.7
2018-09-08T02:37:17.249Z,79.4
2018-09-08T02:38:16.517Z,79.4
2018-09-08T02:39:16.786Z,79.4
2018-09-08T02:40:17.078Z,79.5
2018-09-08T02:41:17.107Z,79.5
2018-09-08T02:42:16.375Z,79.0
2018-09-08T02:43:16.651Z,79.3
2018-09-08T02:44:16.924Z,79.0
2018-09-08T02:45:17.253Z,79.1
2018-09-08T02:46:16.711Z,79.6
2018-09-08T02:47:16.997Z,79.7
2018-09-08T02:48:16.275Z,79.8
2018-09-08T02:49:16.541Z,80.2
2018-09-08T02:50:16.818Z,80.0
2018-09-08T02:51:16.877Z,80.1
2018-09-08T02:52:17.161Z,80.4
2018-09-08T02:53:16.432Z,80.4
2018-09-08T02:54:16.697Z,80.4
2018-09-08T02:55:16.985Z,79.1
2018-09-08T02:56:16.264Z,79.4
2018-09-08T02:57:16.550Z,79.5
2018-09-08T02:58:16.817Z,79.6
2018-09-08T02:59:17.076Z,79.5
2018-09-08T03:00:16.357Z,79.4
2018-09-08T03:01:16.401Z,79.5
2018-09-08T03:02:16.681Z,79.5
2018-09-08T03:03:16.948Z,79.5
2018-09-08T03:04:17.221Z,79.1
2018-09-08T03:05:16.504Z,78.9
2018-09-08T03:06:16.774Z,79.3
2018-09-08T03:07:17.349Z,79.4
2018-09-08T03:08:16.628Z,79.1
2018-09-08T03:09:16.902Z,79.1
2018-09-08T03:10:17.173Z,79.2
2018-09-08T03:11:17.239Z,79.3
2018-09-08T03:12:16.509Z,79.0
2018-09-08T03:13:17.148Z,79.8
2018-09-08T03:14:16.421Z,79.5
2018-09-08T03:15:16.693Z,79.6
2018-09-08T03:16:16.954Z,79.5
2018-09-08T03:17:17.236Z,79.4
2018-09-08T03:18:16.504Z,79.7
2018-09-08T03:19:16.779Z,79.8
2018-09-08T03:20:17.057Z,79.7
2018-09-08T03:21:17.083Z,79.7
2018-09-08T03:22:16.357Z,79.8
2018-09-08T03:23:16.648Z,79.8
2018-09-08T03:24:16.914Z,79.9
2018-09-08T03:25:17.187Z,80.0
2018-09-08T03:26:16.457Z,79.8
2018-09-08T03:27:16.734Z,79.8
2018-09-08T03:28:17.008Z,79.9
2018-09-08T03:29:16.275Z,80.1
2018-09-08T03:30:16.558Z,80.2
2018-09-08T03:31:16.635Z,80.2
2018-09-08T03:32:16.929Z,80.4
2018-09-08T03:33:17.187Z,80.7
2018-09-08T03:34:16.725Z,80.9
2018-09-08T03:35:17.008Z,81.1
2018-09-08T03:36:16.278Z,80.9
2018-09-08T03:37:16.565Z,81.6
2018-09-08T03:38:16.831Z,82.1
2018-09-08T03:39:17.102Z,82.2
2018-09-08T03:40:16.388Z,82.4
2018-09-08T03:41:16.436Z,82.2
2018-09-08T03:42:16.710Z,82.2
2018-09-08T03:43:16.979Z,82.3
2018-09-08T03:44:17.263Z,82.3
2018-09-08T03:45:16.535Z,82.6
2018-09-08T03:46:16.801Z,82.5
2018-09-08T03:47:17.083Z,82.5
2018-09-08T03:48:16.351Z,82.7
2018-09-08T03:49:16.623Z,82.8
2018-09-08T03:50:16.902Z,83.0
2018-09-08T03:51:16.935Z,83.2
2018-09-08T03:52:17.207Z,83.3
2018-09-08T03:53:16.476Z,83.3
2018-09-08T03:54:16.752Z,83.2
2018-09-08T03:55:17.024Z,83.3
2018-09-08T03:56:16.291Z,83.3
2018-09-08T03:57:16.557Z,83.4
2018-09-08T03:58:16.837Z,83.5
2018-09-08T03:59:17.105Z,83.4
2018-09-08T04:00:16.393Z,83.8
2018-09-08T04:01:16.436Z,83.8
2018-09-08T04:02:16.698Z,83.8
2018-09-08T04:03:16.965Z,84.0
2018-09-08T04:04:17.236Z,84.2
2018-09-08T04:05:16.519Z,83.7
2018-09-08T04:06:16.783Z,83.7
2018-09-08T04:07:17.050Z,83.8
2018-09-08T04:08:16.314Z,83.7
2018-09-08T04:09:16.591Z,83.8
2018-09-08T04:10:16.889Z,83.7
2018-09-08T04:11:17.000Z,84.0
2018-09-08T04:12:16.333Z,83.3
2018-09-08T04:13:16.604Z,83.4
2018-09-08T04:14:16.877Z,83.6
2018-09-08T04:15:17.170Z,83.5
2018-09-08T04:16:16.444Z,83.3
2018-09-08T04:17:16.720Z,83.4
2018-09-08T04:18:16.985Z,83.5
2018-09-08T04:19:17.257Z,83.6
2018-09-08T04:20:16.547Z,83.5
2018-09-08T04:21:16.559Z,83.5
2018-09-08T04:22:16.830Z,83.5
2018-09-08T04:23:17.115Z,83.5
2018-09-08T04:24:16.389Z,83.6
2018-09-08T04:25:16.672Z,83.7
2018-09-08T04:26:16.963Z,83.7
2018-09-08T04:27:17.234Z,83.8
2018-09-08T04:28:16.513Z,83.8
2018-09-08T04:29:16.786Z,83.8
2018-09-08T04:30:17.068Z,83.7
2018-09-08T04:31:17.109Z,83.9
2018-09-08T04:32:16.369Z,83.9
2018-09-08T04:33:16.642Z,83.9
2018-09-08T04:34:16.903Z,83.7
2018-09-08T04:35:17.178Z,83.7
2018-09-08T04:36:16.447Z,83.3
2018-09-08T04:37:16.723Z,83.4
2018-09-08T04:38:16.993Z,83.4
2018-09-08T04:39:16.264Z,83.6
2018-09-08T04:40:16.544Z,83.6
2018-09-08T04:41:16.579Z,83.7
2018-09-08T04:42:16.845Z,83.8
2018-09-08T04:43:17.105Z,83.7
2018-09-08T04:44:16.380Z,83.7
2018-09-08T04:45:16.649Z,83.8
2018-09-08T04:46:16.927Z,83.6
2018-09-08T04:47:17.194Z,83.6
2018-09-08T04:48:16.453Z,83.8
2018-09-08T04:49:16.855Z,83.9
2018-09-08T04:50:17.458Z,83.4
2018-09-08T04:51:17.244Z,83.0
2018-09-08T04:52:16.512Z,82.9
2018-09-08T04:53:16.778Z,83.1
2018-09-08T04:54:17.048Z,83.3
2018-09-08T04:55:16.321Z,83.3
2018-09-08T04:56:16.589Z,83.1
2018-09-08T04:57:16.852Z,83.3
2018-09-08T04:58:17.126Z,83.3
2018-09-08T04:59:16.398Z,83.1
2018-09-08T05:00:16.702Z,83.3
2018-09-08T05:01:16.743Z,83.2
2018-09-08T05:02:17.116Z,83.3
2018-09-08T05:03:16.387Z,83.5
2018-09-08T05:04:16.648Z,83.4
2018-09-08T05:05:16.921Z,83.5
2018-09-08T05:06:17.212Z,83.3
2018-09-08T05:07:16.482Z,83.5
2018-09-08T05:08:16.755Z,83.5
2018-09-08T05:09:17.032Z,83.3
2018-09-08T05:10:16.314Z,82.9
2018-09-08T05:11:16.365Z,82.6
2018-09-08T05:12:16.656Z,82.6
2018-09-08T05:13:16.925Z,82.4
2018-09-08T05:14:17.201Z,82.5
2018-09-08T05:15:16.480Z,82.8
2018-09-08T05:16:16.749Z,82.3
2018-09-08T05:17:17.260Z,82.5
2018-09-08T05:18:16.640Z,82.4
2018-09-08T05:19:16.911Z,82.2
2018-09-08T05:20:17.215Z,82.5
2018-09-08T05:21:17.513Z,82.4
2018-09-08T05:22:16.799Z,82.3
2018-09-08T05:23:17.065Z,82.3
2018-09-08T05:24:16.336Z,82.4
2018-09-08T05:25:16.617Z,82.5
2018-09-08T05:26:16.885Z,82.4
2018-09-08T05:27:17.164Z,82.8
2018-09-08T05:28:16.442Z,82.6
2018-09-08T05:29:16.716Z,82.5
2018-09-08T05:30:17.008Z,82.6
2018-09-08T05:31:17.046Z,82.7
2018-09-08T05:32:16.325Z,82.9
2018-09-08T05:33:16.603Z,82.4
2018-09-08T05:34:16.871Z,82.4
2018-09-08T05:35:17.158Z,82.3
2018-09-08T05:36:16.455Z,82.1
2018-09-08T05:37:16.808Z,82.1
2018-09-08T05:38:17.100Z,82.3
2018-09-08T05:39:16.365Z,82.2
2018-09-08T05:40:16.642Z,81.9
2018-09-08T05:41:16.691Z,81.5
2018-09-08T05:42:16.960Z,81.1
2018-09-08T05:43:17.246Z,81.0
2018-09-08T05:44:16.535Z,79.4
2018-09-08T05:45:16.809Z,79.6
2018-09-08T05:46:17.077Z,79.3
2018-09-08T05:47:16.341Z,79.0
2018-09-08T05:48:16.600Z,78.6
2018-09-08T05:49:16.883Z,78.7
2018-09-08T05:50:17.164Z,78.7
2018-09-08T05:51:17.196Z,78.8
2018-09-08T05:52:16.464Z,78.2
2018-09-08T05:53:16.745Z,77.8
2018-09-08T05:54:17.026Z,77.4
2018-09-08T05:55:16.314Z,77.5
2018-09-08T05:56:16.587Z,77.4
2018-09-08T05:57:16.866Z,76.9
2018-09-08T05:58:17.288Z,76.8
2018-09-08T05:59:16.576Z,76.8
2018-09-08T06:00:16.895Z,77.7
2018-09-08T06:01:16.904Z,77.6
2018-09-08T06:02:17.174Z,77.7
2018-09-08T06:03:16.447Z,77.4
2018-09-08T06:04:16.713Z,77.5
2018-09-08T06:05:16.993Z,77.8
2018-09-08T06:06:16.268Z,77.8
2018-09-08T06:07:16.542Z,78.3
2018-09-08T06:08:16.818Z,78.4
2018-09-08T06:09:17.100Z,78.0
2018-09-08T06:10:16.501Z,77.3
2018-09-08T06:11:16.427Z,77.3
2018-09-08T06:12:16.703Z,77.3
2018-09-08T06:13:16.966Z,77.4
2018-09-08T06:14:17.234Z,77.9
2018-09-08T06:15:16.522Z,78.7
2018-09-08T06:16:16.794Z,78.2
2018-09-08T06:17:17.101Z,78.3
2018-09-08T06:18:16.447Z,78.4
2018-09-08T06:19:16.736Z,78.2
2018-09-08T06:20:17.010Z,77.8
2018-09-08T06:21:17.058Z,76.7
2018-09-08T06:22:16.334Z,76.5
2018-09-08T06:23:16.609Z,77.2
2018-09-08T06:24:16.953Z,77.8
2018-09-08T06:25:17.231Z,78.1
2018-09-08T06:26:16.498Z,77.8
2018-09-08T06:27:16.769Z,77.4
2018-09-08T06:28:17.097Z,76.8
2018-09-08T06:29:16.376Z,76.8
2018-09-08T06:30:16.652Z,77.0
2018-09-08T06:31:16.714Z,76.6
2018-09-08T06:32:16.989Z,75.8
2018-09-08T06:33:17.348Z,74.8
2018-09-08T06:34:16.625Z,74.7
2018-09-08T06:35:17.162Z,73.6
2018-09-08T06:36:16.531Z,73.3
2018-09-08T06:37:16.802Z,73.4
2018-09-08T06:38:17.082Z,72.0
2018-09-08T06:39:16.373Z,72.7
2018-09-08T06:40:16.647Z,73.2
2018-09-08T06:41:16.692Z,72.3
2018-09-08T06:42:16.962Z,71.8
2018-09-08T06:43:17.231Z,72.6
2018-09-08T06:44:16.495Z,72.4
2018-09-08T06:45:16.910Z,72.2
2018-09-08T06:46:17.192Z,71.2
2018-09-08T06:47:16.460Z,70.9
2018-09-08T06:48:16.722Z,71.2
2018-09-08T06:49:16.996Z,71.0
2018-09-08T06:50:16.305Z,72.2
2018-09-08T06:51:16.320Z,72.1
2018-09-08T06:52:16.789Z,72.0
2018-09-08T06:53:17.120Z,72.2
2018-09-08T06:54:16.397Z,71.8
2018-09-08T06:55:16.673Z,72.5
2018-09-08T06:56:16.936Z,72.7
2018-09-08T06:57:17.215Z,73.6
2018-09-08T06:58:16.484Z,73.8
2018-09-08T06:59:16.763Z,73.5
2018-09-08T07:00:17.121Z,74.1
2018-09-08T07:01:17.083Z,73.9
2018-09-08T07:02:16.343Z,74.0
2018-09-08T07:03:16.692Z,74.7
2018-09-08T07:04:16.967Z,74.9
2018-09-08T07:05:17.242Z,74.7
2018-09-08T07:06:16.508Z,74.7
2018-09-08T07:07:16.779Z,74.7
2018-09-08T07:08:17.051Z,74.9
2018-09-08T07:09:16.324Z,73.9
2018-09-08T07:10:16.605Z,73.6
2018-09-08T07:11:16.651Z,73.4
2018-09-08T07:12:16.933Z,72.0
2018-09-08T07:13:17.202Z,70.1
2018-09-08T07:14:16.468Z,68.4
2018-09-08T07:15:17.057Z,70.1
2018-09-08T07:16:16.407Z,69.2
2018-09-08T07:17:16.686Z,69.6
2018-09-08T07:18:16.955Z,68.9
2018-09-08T07:19:17.230Z,69.0
2018-09-08T07:20:16.506Z,68.2
2018-09-08T07:21:16.558Z,66.7
2018-09-08T07:22:16.832Z,67.2
2018-09-08T07:23:17.101Z,67.9
2018-09-08T07:24:16.364Z,68.7
2018-09-08T07:25:16.640Z,68.2
2018-09-08T07:26:16.917Z,67.7
2018-09-08T07:27:17.188Z,67.6
2018-09-08T07:28:16.456Z,67.9
2018-09-08T07:29:16.723Z,69.5
2018-09-08T07:30:17.015Z,70.0
2018-09-08T07:31:17.068Z,70.0
2018-09-08T07:32:16.333Z,70.1
2018-09-08T07:33:16.600Z,69.9
2018-09-08T07:34:16.877Z,69.7
2018-09-08T07:35:17.152Z,70.1
2018-09-08T07:36:16.425Z,70.5
2018-09-08T07:37:16.762Z,70.8
2018-09-08T07:38:17.034Z,71.2
2018-09-08T07:39:16.315Z,71.4
2018-09-08T07:40:16.591Z,72.0
2018-09-08T07:41:16.644Z,71.2
2018-09-08T07:42:16.924Z,70.3
2018-09-08T07:43:17.192Z,69.7
2018-09-08T07:44:16.461Z,68.7
2018-09-08T07:45:16.744Z,68.7
2018-09-08T07:46:17.012Z,70.6
2018-09-08T07:47:16.288Z,70.1
2018-09-08T07:48:16.557Z,69.7
2018-09-08T07:49:16.823Z,66.9
2018-09-08T07:50:17.373Z,67.6
2018-09-08T07:51:17.152Z,66.1
2018-09-08T07:52:16.429Z,65.4
2018-09-08T07:53:16.936Z,64.2
2018-09-08T07:54:16.288Z,64.3
2018-09-08T07:55:16.560Z,66.5
2018-09-08T07:56:16.832Z,66.0
2018-09-08T07:57:17.110Z,65.6
2018-09-08T07:58:16.376Z,66.8
2018-09-08T07:59:16.809Z,67.5
2018-09-08T08:00:17.134Z,68.2
2018-09-08T08:01:17.140Z,67.7
2018-09-08T08:02:16.409Z,68.2
2018-09-08T08:03:16.687Z,68.2
2018-09-08T08:04:16.954Z,68.6
2018-09-08T08:05:17.238Z,69.4
2018-09-08T08:06:16.519Z,68.5
2018-09-08T08:07:16.791Z,66.2
2018-09-08T08:08:17.057Z,64.9
2018-09-08T08:09:16.317Z,62.8
2018-09-08T08:10:16.599Z,62.2
2018-09-08T08:11:16.650Z,61.2
2018-09-08T08:12:16.922Z,60.9
2018-09-08T08:13:17.211Z,59.5
2018-09-08T08:14:16.478Z,61.2
2018-09-08T08:15:16.745Z,63.2
2018-09-08T08:16:17.014Z,62.3
2018-09-08T08:17:16.289Z,62.3
2018-09-08T08:18:16.562Z,65.0
2018-09-08T08:19:16.842Z,65.9
2018-09-08T08:20:17.125Z,66.7
2018-09-08T08:21:17.173Z,66.8
2018-09-08T08:22:16.454Z,65.2
2018-09-08T08:23:16.891Z,67.0
2018-09-08T08:24:17.173Z,66.6
2018-09-08T08:25:16.446Z,66.7
2018-09-08T08:26:16.714Z,64.4
2018-09-08T08:27:16.979Z,62.9
2018-09-08T08:28:17.584Z,61.9
2018-09-08T08:29:16.852Z,60.2
2018-09-08T08:30:17.123Z,60.2
2018-09-08T08:31:17.479Z,58.7
2018-09-08T08:32:16.795Z,55.9
2018-09-08T08:33:17.061Z,53.9
2018-09-08T08:34:16.339Z,51.2
2018-09-08T08:35:16.627Z,46.6
2018-09-08T08:36:16.915Z,45.6
2018-09-08T08:37:17.432Z,48.5
2018-09-08T08:38:16.821Z,50.4
2018-09-08T08:39:17.108Z,49.3
2018-09-08T08:40:16.396Z,48.6
2018-09-08T08:41:16.445Z,47.9
2018-09-08T08:42:16.711Z,48.5
2018-09-08T08:43:17.147Z,47.3
2018-09-08T08:44:16.426Z,44.0
2018-09-08T08:45:16.696Z,44.1
2018-09-08T08:46:16.958Z,46.3
2018-09-08T08:47:17.238Z,46.2
2018-09-08T08:48:16.496Z,45.2
2018-09-08T08:49:16.767Z,44.5
2018-09-08T08:50:17.044Z,42.7
2018-09-08T08:51:17.073Z,40.2
2018-09-08T08:52:16.417Z,38.2
2018-09-08T08:53:16.688Z,38.0
2018-09-08T08:54:16.960Z,40.3
2018-09-08T08:55:17.217Z,45.1
2018-09-08T08:56:16.480Z,45.8
2018-09-08T08:57:16.761Z,43.6
2018-09-08T08:58:17.039Z,49.9
2018-09-08T08:59:16.311Z,51.3
2018-09-08T09:00:16.596Z,52.0
2018-09-08T09:01:16.649Z,51.5
2018-09-08T09:02:16.925Z,50.1
2018-09-08T09:03:17.194Z,50.3
2018-09-08T09:04:16.465Z,46.9
2018-09-08T09:05:16.743Z,46.4
2018-09-08T09:06:17.019Z,46.4
2018-09-08T09:07:17.338Z,43.9
2018-09-08T09:08:17.412Z,43.2
2018-09-08T09:09:16.856Z,43.9
2018-09-08T09:10:17.190Z,43.6
2018-09-08T09:11:17.236Z,46.0
2018-09-08T09:12:16.513Z,46.1
2018-09-08T09:13:16.932Z,48.2
2018-09-08T09:14:17.254Z,49.8
2018-09-08T09:15:17.242Z,47.6
2018-09-08T09:16:16.642Z,45.0
2018-09-08T09:17:16.912Z,43.1
2018-09-08T09:18:17.265Z,42.4
2018-09-08T09:19:16.549Z,44.6
2018-09-08T09:20:16.839Z,44.1
2018-09-08T09:21:16.878Z,39.7
2018-09-08T09:22:17.150Z,41.7
2018-09-08T09:23:16.821Z,43.3
2018-09-08T09:24:17.370Z,42.5
2018-09-08T09:25:16.898Z,41.3
2018-09-08T09:26:17.177Z,41.0
2018-09-08T09:27:16.443Z,42.5
2018-09-08T09:28:16.711Z,43.6
2018-09-08T09:29:16.993Z,42.5
2018-09-08T09:30:16.277Z,41.5
2018-09-08T09:31:16.315Z,37.6
2018-09-08T09:32:16.590Z,37.8
2018-09-08T09:33:16.863Z,40.4
2018-09-08T09:34:17.139Z,39.9
2018-09-08T09:35:16.423Z,39.2
2018-09-08T09:36:16.700Z,41.5
2018-09-08T09:37:17.079Z,41.9
2018-09-08T09:38:16.422Z,41.1
2018-09-08T09:39:16.696Z,43.6
2018-09-08T09:40:16.987Z,43.9
2018-09-08T09:41:17.010Z,44.2
2018-09-08T09:42:16.293Z,43.6
2018-09-08T09:43:16.556Z,44.1
2018-09-08T09:44:17.003Z,45.0
2018-09-08T09:45:16.339Z,46.3
2018-09-08T09:46:16.622Z,46.6
2018-09-08T09:47:16.887Z,44.3
2018-09-08T09:48:17.170Z,41.7
2018-09-08T09:49:16.440Z,42.1
2018-09-08T09:50:16.723Z,41.1
2018-09-08T09:51:16.763Z,41.3
2018-09-08T09:52:17.027Z,41.7
2018-09-08T09:53:16.538Z,41.0
2018-09-08T09:54:16.868Z,38.0
2018-09-08T09:55:17.131Z,36.5
2018-09-08T09:56:16.402Z,34.6
2018-09-08T09:57:16.684Z,35.5
2018-09-08T09:58:16.957Z,34.2
2018-09-08T09:59:17.239Z,35.7
2018-09-08T10:00:16.540Z,37.8
2018-09-08T10:01:16.561Z,38.9
2018-09-08T10:02:16.829Z,37.1
2018-09-08T10:03:17.107Z,36.4
2018-09-08T10:04:16.425Z,37.9
2018-09-08T10:05:16.700Z,38.6
2018-09-08T10:06:17.356Z,38.6
2018-09-08T10:07:16.626Z,34.1
2018-09-08T10:08:16.898Z,37.4
2018-09-08T10:09:17.182Z,35.2
2018-09-08T10:10:16.464Z,32.9
2018-09-08T10:11:16.492Z,36.0
2018-09-08T10:12:16.769Z,35.3
2018-09-08T10:13:17.045Z,35.4
2018-09-08T10:14:16.312Z,36.0
2018-09-08T10:15:16.589Z,36.0
2018-09-08T10:16:16.863Z,34.7
2018-09-08T10:17:17.152Z,35.3
2018-09-08T10:18:16.434Z,33.9
2018-09-08T10:19:16.704Z,32.3
2018-09-08T10:20:16.974Z,34.7
2018-09-08T10:21:17.027Z,32.4
2018-09-08T10:22:16.288Z,31.3
2018-09-08T10:23:16.882Z,29.2
2018-09-08T10:24:16.276Z,30.1
2018-09-08T10:25:16.547Z,34.4
2018-09-08T10:26:16.889Z,33.8
2018-09-08T10:27:17.163Z,33.9
2018-09-08T10:28:16.432Z,35.1
2018-09-08T10:29:16.698Z,33.2
2018-09-08T10:30:16.972Z,30.9
2018-09-08T10:31:17.039Z,30.0
2018-09-08T10:32:17.497Z,33.6
2018-09-08T10:33:16.897Z,33.1
2018-09-08T10:34:17.164Z,33.9
2018-09-08T10:35:16.441Z,34.1
2018-09-08T10:36:16.712Z,35.5
2018-09-08T10:37:16.985Z,35.5
2018-09-08T10:38:17.249Z,35.7
2018-09-08T10:39:16.531Z,36.9
2018-09-08T10:40:17.097Z,37.0
2018-09-08T10:41:16.959Z,36.7
2018-09-08T10:42:17.360Z,36.3
2018-09-08T10:43:16.763Z,35.6
2018-09-08T10:44:17.163Z,36.3
2018-09-08T10:45:16.582Z,36.3
2018-09-08T10:46:16.974Z,35.7
2018-09-08T10:47:17.397Z,35.6
2018-09-08T10:48:16.793Z,35.5
2018-09-08T10:49:17.180Z,33.0
2018-09-08T10:50:16.597Z,31.1
2018-09-08T10:51:16.633Z,32.0
2018-09-08T10:52:17.039Z,33.0
2018-09-08T10:53:16.451Z,31.6
2018-09-08T10:54:16.903Z,32.5
2018-09-08T10:55:17.304Z,34.5
2018-09-08T10:56:16.701Z,34.1
2018-09-08T10:57:17.114Z,34.8
2018-09-08T10:58:16.501Z,32.8
2018-09-08T10:59:16.906Z,34.7
2018-09-08T11:00:17.331Z,34.4
2018-09-08T11:01:17.372Z,33.8
2018-09-08T11:02:17.763Z,33.7
2018-09-08T11:03:16.407Z,33.9
2018-09-08T11:04:16.795Z,34.2
2018-09-08T11:05:17.202Z,33.7
2018-09-08T11:06:16.585Z,32.5
2018-09-08T11:07:16.988Z,32.6
2018-09-08T11:08:16.381Z,31.4
2018-09-08T11:09:16.772Z,32.5
2018-09-08T11:10:17.163Z,33.5
2018-09-08T11:11:17.226Z,32.7
2018-09-08T11:12:16.627Z,32.9
2018-09-08T11:13:17.017Z,31.0
2018-09-08T11:14:16.407Z,30.8
2018-09-08T11:15:16.803Z,31.5
2018-09-08T11:16:17.198Z,32.3
2018-09-08T11:17:16.597Z,30.8
2018-09-08T11:18:16.992Z,29.5
2018-09-08T11:19:16.387Z,31.0
2018-09-08T11:20:16.781Z,29.1
2018-09-08T11:21:16.828Z,30.5
2018-09-08T11:22:17.218Z,31.4
2018-09-08T11:23:16.621Z,31.3
2018-09-08T11:24:17.003Z,31.3
2018-09-08T11:25:16.417Z,31.2
2018-09-08T11:26:16.814Z,29.7
2018-09-08T11:27:17.210Z,30.1
2018-09-08T11:28:16.660Z,30.9
2018-09-08T11:29:17.076Z,30.1
2018-09-08T11:30:16.504Z,31.3
2018-09-08T11:31:16.527Z,31.5
2018-09-08T11:32:16.911Z,31.5
2018-09-08T11:33:17.327Z,31.0
2018-09-08T11:34:16.729Z,30.1
2018-09-08T11:35:17.122Z,29.9
2018-09-08T11:36:16.515Z,30.4
2018-09-08T11:37:16.898Z,30.8
2018-09-08T11:38:17.709Z,30.7
2018-09-08T11:39:17.231Z,31.6
2018-09-08T11:40:16.630Z,31.8
2018-09-08T11:41:16.696Z,32.8
2018-09-08T11:42:17.088Z,31.3
2018-09-08T11:43:16.477Z,30.3
2018-09-08T11:44:16.863Z,30.7
2018-09-08T11:45:17.282Z,31.1
2018-09-08T11:46:16.679Z,30.4
2018-09-08T11:47:17.072Z,30.2
2018-09-08T11:48:16.464Z,32.4
2018-09-08T11:49:16.859Z,31.9
2018-09-08T11:50:17.270Z,32.2
2018-09-08T11:51:17.331Z,31.8
2018-09-08T11:52:16.727Z,31.8
2018-09-08T11:53:17.173Z,31.4
2018-09-08T11:54:16.574Z,31.2
2018-09-08T11:55:16.969Z,31.6
2018-09-08T11:56:17.362Z,32.4
2018-09-08T11:57:16.754Z,30.3
2018-09-08T11:58:17.347Z,30.7
2018-09-08T11:59:16.735Z,30.5
2018-09-08T12:00:17.136Z,30.4
2018-09-08T12:01:17.118Z,30.0
2018-09-08T12:02:16.627Z,30.9
2018-09-08T12:03:16.913Z,32.1
2018-09-08T12:04:17.204Z,30.6
2018-09-08T12:05:16.487Z,31.2
2018-09-08T12:06:16.846Z,29.8
2018-09-08T12:07:17.133Z,30.3
2018-09-08T12:08:16.400Z,30.3
2018-09-08T12:09:16.666Z,30.7
2018-09-08T12:10:16.948Z,30.4
2018-09-08T12:11:16.975Z,30.7
2018-09-08T12:12:17.240Z,30.9
2018-09-08T12:13:16.502Z,31.1
2018-09-08T12:14:16.773Z,30.5
2018-09-08T12:15:17.051Z,31.2
2018-09-08T12:16:16.315Z,31.7
2018-09-08T12:17:16.578Z,32.3
2018-09-08T12:18:16.853Z,30.9
2018-09-08T12:19:17.379Z,30.4
2018-09-08T12:20:16.670Z,30.6
2018-09-08T12:21:16.710Z,31.0
2018-09-08T12:22:17.185Z,29.9
2018-09-08T12:23:16.490Z,30.3
2018-09-08T12:24:16.758Z,30.5
2018-09-08T12:25:17.027Z,30.8
2018-09-08T12:26:16.305Z,31.2
2018-09-08T12:27:16.570Z,31.6
2018-09-08T12:28:16.837Z,31.6
2018-09-08T12:29:17.329Z,32.3
2018-09-08T12:30:16.621Z,32.5
2018-09-08T12:31:16.675Z,33.1
2018-09-08T12:32:16.941Z,32.6
2018-09-08T12:33:17.496Z,32.5
2018-09-08T12:34:16.765Z,32.5
2018-09-08T12:35:17.042Z,31.6
2018-09-08T12:36:16.344Z,31.7
2018-09-08T12:37:16.748Z,29.7
2018-09-08T12:38:17.079Z,29.8
2018-09-08T12:39:16.364Z,29.9
2018-09-08T12:40:16.643Z,31.9
2018-09-08T12:41:16.698Z,30.8
2018-09-08T12:42:16.962Z,30.3
2018-09-08T12:43:17.518Z,30.3
2018-09-08T12:44:16.792Z,30.7
2018-09-08T12:45:17.072Z,31.4
2018-09-08T12:46:16.350Z,30.7
2018-09-08T12:47:16.624Z,31.3
2018-09-08T12:48:16.886Z,30.8
2018-09-08T12:49:17.155Z,31.1
2018-09-08T12:50:16.431Z,31.1
2018-09-08T12:51:16.471Z,30.3
2018-09-08T12:52:16.739Z,31.3
2018-09-08T12:53:17.079Z,31.7
2018-09-08T12:54:16.356Z,31.8
2018-09-08T12:55:16.655Z,32.3
2018-09-08T12:56:16.936Z,32.5
2018-09-08T12:57:17.210Z,32.4
2018-09-08T12:58:16.475Z,32.1
2018-09-08T12:59:17.003Z,32.3
2018-09-08T13:00:16.298Z,31.7
2018-09-08T13:01:16.355Z,31.7
2018-09-08T13:02:16.620Z,31.7
2018-09-08T13:03:16.888Z,31.8
2018-09-08T13:04:17.153Z,31.9
2018-09-08T13:05:16.424Z,32.1
2018-09-08T13:06:16.696Z,32.0
2018-09-08T13:07:16.978Z,32.5
2018-09-08T13:08:17.251Z,32.2
2018-09-08T13:09:16.525Z,33.1
2018-09-08T13:10:16.792Z,33.4
2018-09-08T13:11:16.842Z,32.8
2018-09-08T13:12:17.106Z,32.0
2018-09-08T13:13:16.373Z,30.8
2018-09-08T13:14:16.874Z,30.6
2018-09-08T13:15:17.164Z,30.6
2018-09-08T13:16:16.478Z,30.6
2018-09-08T13:17:16.752Z,30.9
2018-09-08T13:18:17.018Z,31.2